»·PEaware :: N759ZT KSMX-KBFL

N759ZT :: KSMX-KBFL

FLIGHT INFORMATION

Flight Status: Arrived
Operator: Privately registered:
United States
More flights under this callsign
Pilot: John A. (17550)
Aircraft: CESSNA T210 TURBO CENTURION
(T210)
More flights by this aircraft type
Origin: KSMX Santa Maria Pub/Capt Hancock
United States
Destination: KBFL Meadows
United States
More flights between these airports :: More routes between these airports
Route: +FLW
File this flight plan on PilotEdge
Remarks:
Altitude:
(Current/Filed)
5,500ft
Speed:
(Current/Filed)
155kts
Departed: 08-Jan-18 01:47 PM
Arrived: 08-Jan-18 02:38 PM
Distance/Time
Traveled:
76nm/0:51
Distance/Time
To Go:
Arrived

Flight Plot

Page will automatically refresh every two minutes.


Map Options




Map Legend


Flown Route
Filed Route
Departure Airport
Arrival Airport
Navaid (VOR, NDB)
Fix

Horizontal Profiles

Position Reports

Time Latitude Longitude Heading Altitude Ground
Speed
08-Jan-18 13:21 34.897494 -120.446926 230 265ft 0kts
08-Jan-18 13:23 34.897494 -120.446926 230 265ft 0kts
08-Jan-18 13:24 34.897494 -120.446926 230 265ft 0kts
08-Jan-18 13:25 34.897494 -120.446926 230 265ft 0kts
08-Jan-18 13:26 34.897494 -120.446926 230 265ft 0kts
08-Jan-18 13:32 34.897558 -120.446987 150 265ft 0kts
08-Jan-18 13:33 34.897558 -120.446987 150 265ft 0kts
08-Jan-18 13:34 34.897558 -120.446987 150 265ft 0kts
08-Jan-18 13:39 34.898371 -120.447494 46 265ft 0kts
08-Jan-18 13:40 34.906051 -120.457641 316 264ft 0kts
08-Jan-18 13:41 34.906051 -120.457641 316 264ft 0kts
08-Jan-18 13:42 34.906050 -120.457640 316 265ft 0kts
08-Jan-18 13:43 34.906050 -120.457640 316 265ft 0kts
08-Jan-18 13:44 34.906058 -120.457648 315 265ft 0kts
08-Jan-18 13:45 34.906066 -120.457658 315 265ft 1kts
08-Jan-18 13:46 34.906269 -120.457978 275 265ft 0kts
08-Jan-18 13:47 34.906269 -120.458013 266 265ft 2kts
08-Jan-18 13:48 34.906326 -120.459575 314 265ft 13kts
08-Jan-18 13:49 34.908518 -120.462071 318 265ft 17kts
08-Jan-18 13:50 34.908748 -120.463139 233 265ft 0kts
08-Jan-18 13:51 34.908748 -120.463139 233 265ft 0kts
08-Jan-18 13:52 34.908216 -120.463635 191 265ft 16kts
08-Jan-18 13:53 34.900948 -120.455300 137 356ft 89kts
08-Jan-18 13:54 34.891434 -120.442477 115 1045ft 78kts
08-Jan-18 13:55 34.893311 -120.426067 78 1646ft 80kts
08-Jan-18 13:56 34.900191 -120.410694 58 2196ft 88kts
08-Jan-18 13:57 34.908229 -120.393204 66 2817ft 90kts
08-Jan-18 13:58 34.913553 -120.374240 72 3407ft 95kts
08-Jan-18 13:59 34.921118 -120.355545 54 4033ft 98kts
08-Jan-18 14:00 34.931778 -120.338446 69 4606ft 101kts
08-Jan-18 14:01 34.940420 -120.319927 61 5204ft 103kts
08-Jan-18 14:02 34.953249 -120.298623 58 5493ft 134kts
08-Jan-18 14:03 34.968202 -120.273612 62 5480ft 162kts
08-Jan-18 14:04 34.981674 -120.244454 66 5477ft 171kts
08-Jan-18 14:05 34.994113 -120.214316 69 5506ft 172kts
08-Jan-18 14:06 35.006409 -120.183389 69 5542ft 173kts
08-Jan-18 14:07 35.018122 -120.153329 70 5542ft 171kts
08-Jan-18 14:08 35.029843 -120.123044 70 5544ft 169kts
08-Jan-18 14:09 35.041703 -120.092293 71 5545ft 167kts
08-Jan-18 14:10 35.053781 -120.060974 71 5546ft 166kts
08-Jan-18 14:11 35.067378 -120.025507 71 5510ft 166kts
08-Jan-18 14:12 35.080809 -119.990619 71 5510ft 164kts
08-Jan-18 14:13 35.093516 -119.957498 71 5510ft 164kts
08-Jan-18 14:14 35.105775 -119.925574 71 5505ft 164kts
08-Jan-18 14:15 35.118720 -119.891765 71 5505ft 163kts
08-Jan-18 14:16 35.133419 -119.853331 71 5506ft 162kts
08-Jan-18 14:17 35.148367 -119.814085 71 5506ft 161kts
08-Jan-18 14:18 35.164677 -119.771292 71 5507ft 160kts
08-Jan-18 14:19 35.180872 -119.728843 72 5505ft 159kts
08-Jan-18 14:20 35.195722 -119.689739 71 5503ft 161kts
08-Jan-18 14:21 35.208158 -119.657058 69 5426ft 165kts
08-Jan-18 14:22 35.222178 -119.628121 62 4871ft 176kts
08-Jan-18 14:23 35.236671 -119.595978 64 4323ft 173kts
08-Jan-18 14:24 35.251896 -119.566189 61 3950ft 168kts
08-Jan-18 14:25 35.260457 -119.530296 84 3663ft 155kts
08-Jan-18 14:26 35.271151 -119.491744 68 3441ft 151kts
08-Jan-18 14:27 35.284780 -119.454949 67 3142ft 152kts
08-Jan-18 14:28 35.299181 -119.416800 67 3044ft 140kts
08-Jan-18 14:29 35.312825 -119.380625 67 3045ft 131kts
08-Jan-18 14:30 35.325515 -119.346887 67 2857ft 140kts
08-Jan-18 14:31 35.339064 -119.310853 67 2574ft 148kts
08-Jan-18 14:32 35.353110 -119.272904 67 2206ft 151kts
08-Jan-18 14:33 35.367334 -119.235289 66 2021ft 142kts
08-Jan-18 14:34 35.377780 -119.207604 65 2075ft 129kts
08-Jan-18 14:35 35.387442 -119.181973 65 2095ft 123kts
08-Jan-18 14:36 35.395529 -119.157872 73 1994ft 121kts
08-Jan-18 14:37 35.402576 -119.133755 71 1716ft 125kts
08-Jan-18 14:38 35.409587 -119.108716 68 1743ft 131kts
08-Jan-18 14:39 35.418825 -119.081598 67 1734ft 133kts
08-Jan-18 14:40 35.415292 -119.060197 140 1598ft 103kts
08-Jan-18 14:41 35.404066 -119.045007 82 1405ft 85kts
08-Jan-18 14:42 35.415033 -119.034563 340 1080ft 88kts
08-Jan-18 14:43 35.426772 -119.047875 317 673ft 83kts
08-Jan-18 14:44 35.435757 -119.058208 8 489ft 10kts
08-Jan-18 14:45 35.436225 -119.057888 50 492ft 0kts
08-Jan-18 14:46 35.435748 -119.056231 131 493ft 9kts
08-Jan-18 14:47 35.434909 -119.054054 45 496ft 0kts
08-Jan-18 14:48 35.434909 -119.054054 45 496ft 0kts
08-Jan-18 14:49 35.434909 -119.054054 45 496ft 0kts
08-Jan-18 14:50 35.434909 -119.054054 45 496ft 0kts
08-Jan-18 14:51 35.434909 -119.054054 45 496ft 0kts
08-Jan-18 14:52 35.434909 -119.054054 45 496ft 0kts
08-Jan-18 14:53 35.434909 -119.054054 45 496ft 0kts
08-Jan-18 14:54 35.434909 -119.054054 45 496ft 0kts
08-Jan-18 14:55 35.434909 -119.054054 45 496ft 0kts

Navigation Log

Ident Type
Flight plan parsing failed, navigation log unavailable